Latest Weather Observations for The Monument

IDQ60801

Issued at 11:05 am EST Saturday 23 August 2014 (issued every 30 minutes, with the page automatically refreshed every 10 minutes)

About weather observations | Map of weather stations | Latest weather observations for QLD | Other Formats
Station Details ID: 037034 Name: THE MONUMENT AIRPORT Lat: -21.81 Lon: 139.93 Height: 288.4 m
Data from the previous 72 hours. | See also: Recent months at The Monument
Date/Time
EST
Temp
°C
App
Temp
°C
Dew
Point
Rel
Hum
%
Delta-T
°C
Wind Press
QNH
hPa
Press
MSL
hPa
Rain
since 9 am
mm
Dir
 
Spd
km/h
Gust
km/h
Spd
kts
Gust
kts
23/10:30am 23.7 18.5 3.6 27 9.9 E 20 30 11 16 1022.3 1021.7 0.0
23/10:00am 21.6 17.1 4.2 32 8.5 ESE 17 24 9 13 1022.6 1022.0 0.0
23/09:30am 20.4 16.2 4.0 34 8.0 ESE 15 19 8 10 1022.5 1021.9 0.0
23/09:00am 17.6 14.5 3.5 39 6.6 ESE 9 15 5 8 1022.3 1021.7 0.0
23/08:30am 16.2 13.0 3.3 42 6.0 SSE 9 11 5 6 1022.0 1021.4 0.0
23/08:00am 12.8 10.8 -0.1 41 5.4 CALM 0 0 0 0 1021.7 1021.0 0.0
23/07:30am 10.4 8.3 -0.7 46 4.5 CALM 0 0 0 0 1021.2 1020.5 0.0
23/07:00am 9.1 6.9 -1.3 48 4.1 CALM 0 0 0 0 1020.9 1020.2 0.0
23/06:30am 9.3 7.2 -1.1 48 4.1 CALM 0 0 0 0 1020.5 1019.8 0.0
23/06:00am 9.6 6.4 -0.6 49 4.1 S 6 7 3 4 1019.9 1019.3 0.0
23/05:30am 10.3 6.8 -1.4 44 4.6 S 7 7 4 4 1019.6 1019.0 0.0
23/05:00am 10.9 7.4 -1.5 42 4.9 SSW 7 9 4 5 1019.5 1018.9 0.0
23/04:30am 12.5 9.1 -0.4 41 5.4 S 7 9 4 5 1019.2 1018.6 0.0
23/04:00am 12.9 9.5 -0.4 40 5.5 S 7 7 4 4 1019.2 1018.6 0.0
23/03:30am 13.6 10.3 0.3 40 5.7 SSE 7 9 4 5 1019.2 1018.6 0.0
23/03:00am 14.0 10.3 -0.1 38 6.0 SSE 9 9 5 5 1019.2 1018.6 0.0
23/02:30am 14.9 11.1 -0.4 35 6.5 SSE 9 11 5 6 1019.5 1018.9 0.0
23/02:00am 15.8 11.7 0.0 34 6.8 S 11 13 6 7 1019.4 1018.8 0.0
23/01:30am 16.8 12.8 0.5 33 7.2 S 11 13 6 7 1019.5 1018.9 0.0
23/01:00am 17.2 13.6 0.4 32 7.4 SSE 9 13 5 7 1019.7 1019.1 0.0
23/12:30am 18.2 13.5 0.8 31 7.8 S 15 20 8 11 1019.8 1019.2 0.0
23/12:00am 18.3 13.2 0.9 31 7.8 SSE 17 20 9 11 1019.8 1019.2 0.0
 
Date/Time
EST
Temp
°C
App
Temp
°C
Dew
Point
Rel
Hum
%
Delta-T
°C
Wind Press
QNH
hPa
Press
MSL
hPa
Rain
since 9 am
mm
Dir
 
Spd
km/h
Gust
km/h
Spd
kts
Gust
kts
22/11:30pm 18.5 13.8 0.6 30 8.0 SSE 15 20 8 11 1019.9 1019.3 0.0
22/11:00pm 18.1 13.7 0.3 30 7.9 S 13 15 7 8 1019.8 1019.2 0.0
22/10:30pm 18.1 14.1 0.3 30 7.9 S 11 13 6 7 1019.7 1019.1 0.0
22/10:00pm 18.3 14.3 0.4 30 8.0 S 11 13 6 7 1019.6 1019.0 0.0
22/09:30pm 18.4 14.8 0.5 30 8.0 S 9 11 5 6 1019.4 1018.8 0.0
22/09:00pm 19.4 15.8 0.4 28 8.5 S 9 11 5 6 1019.4 1018.8 0.0
22/08:30pm 19.7 16.0 0.2 27 8.8 S 9 11 5 6 1019.0 1018.4 0.0
22/08:00pm 21.0 16.7 0.8 26 9.3 SSE 13 13 7 7 1018.6 1017.9 0.0
22/07:30pm 22.0 17.8 1.6 26 9.6 SSE 13 15 7 8 1018.3 1017.6 0.0
22/07:00pm 22.6 18.8 1.6 25 9.9 SSE 11 17 6 9 1017.8 1017.1 0.0
22/06:30pm 24.1 19.9 1.7 23 10.7 SSE 13 17 7 9 1017.4 1016.7 0.0
22/06:00pm 25.5 20.0 0.9 20 11.7 SSE 19 28 10 15 1017.2 1016.5 0.0
22/05:30pm 26.2 20.8 1.5 20 12.0 SSE 19 26 10 14 1017.0 1016.3 0.0
22/05:00pm 26.8 21.5 2.0 20 12.1 SSE 19 24 10 13 1016.8 1016.1 0.0
22/04:30pm 27.0 22.2 2.8 21 12.1 SE 17 28 9 15 1016.6 1016.0 0.0
22/04:00pm 27.0 23.4 0.7 18 12.6 SSW 9 20 5 11 1016.6 1016.0 0.0
22/03:30pm 27.1 22.5 1.5 19 12.5 S 15 24 8 13 1016.6 1016.0 0.0
22/03:00pm 27.0 21.5 2.1 20 12.2 SE 20 30 11 16 1016.9 1016.2 0.0
22/02:30pm 26.7 21.3 2.6 21 11.9 SSE 20 30 11 16 1017.3 1016.6 0.0
22/02:00pm 26.6 21.2 2.5 21 11.9 SSE 20 33 11 18 1017.6 1016.9 0.0
22/01:30pm 25.9 20.3 3.2 23 11.3 ESE 22 32 12 17 1018.2 1017.5 0.0
22/01:00pm 26.4 21.4 3.6 23 11.5 ESE 19 37 10 20 1018.7 1018.0 0.0
22/12:30pm 25.5 21.9 5.1 27 10.5 SSE 13 32 7 17 1019.1 1018.5 0.0
22/12:00pm 24.3 20.9 4.1 27 10.1 SE 11 20 6 11 1019.7 1019.1 0.0
22/11:30am 23.5 19.1 4.5 29 9.5 ESE 17 26 9 14 1020.4 1019.7 0.0
22/11:00am 22.1 17.8 3.3 29 9.1 SE 15 22 8 12 1020.9 1020.2 0.0
22/10:30am 20.6 16.5 2.0 29 8.7 SE 13 19 7 10 1021.2 1020.5 0.0
22/10:00am 18.9 14.6 1.0 30 8.1 SE 13 19 7 10 1021.4 1020.7 0.0
22/09:30am 17.6 12.9 0.7 32 7.5 SE 15 20 8 11 1021.4 1020.7 0.0
22/09:00am 15.8 11.3 0.0 34 6.8 S 13 17 7 9 1021.4 1020.7 0.0
22/08:30am 14.4 9.9 -0.1 37 6.2 S 13 17 7 9 1021.1 1020.4 0.0
22/08:00am 12.2 8.8 -0.6 41 5.3 S 7 11 4 6 1020.9 1020.2 0.0
22/07:30am 9.7 6.4 -1.3 46 4.3 S 6 9 3 5 1020.6 1019.9 0.0
22/07:00am 8.2 4.6 -3.9 42 4.4 SSW 6 7 3 4 1020.1 1019.5 0.0
22/06:30am 9.5 5.6 -1.5 46 4.3 SSW 9 11 5 6 1019.8 1019.2 0.0
22/06:00am 10.2 6.3 -1.5 44 4.6 S 9 11 5 6 1019.6 1019.0 0.0
22/05:30am 10.0 6.1 -1.4 45 4.5 S 9 11 5 6 1019.3 1018.7 0.0
22/05:00am 9.6 5.7 -1.7 45 4.4 SSW 9 9 5 5 1019.0 1018.4 0.0
22/04:30am 9.1 5.4 -2.5 44 4.4 SSW 7 9 4 5 1018.8 1018.1 0.0
22/04:00am 9.8 6.3 -2.5 42 4.7 SSW 6 7 3 4 1018.8 1018.1 0.0
22/03:30am 9.2 6.9 -2.7 43 4.5 CALM 0 0 0 0 1019.0 1018.4 0.0
22/03:00am 10.8 6.8 -2.2 40 5.1 S 9 9 5 5 1019.2 1018.6 0.0
22/02:30am 11.2 6.8 -2.2 39 5.3 S 11 13 6 7 1019.3 1018.7 0.0
22/02:00am 11.8 8.0 -0.7 42 5.1 S 9 11 5 6 1019.5 1018.9 0.0
22/01:30am 9.2 5.6 -4.0 39 4.9 S 6 9 3 5 1019.6 1019.0 0.0
22/01:00am 11.6 8.2 -0.9 42 5.1 S 7 9 4 5 1019.7 1019.1 0.0
22/12:30am 10.5 8.0 -1.2 44 4.7 S 2 7 1 4 1019.8 1019.2 0.0
22/12:00am 12.0 8.5 -1.5 39 5.4 SSW 7 9 4 5 1019.7 1019.1 0.0
 
Date/Time
EST
Temp
°C
App
Temp
°C
Dew
Point
Rel
Hum
%
Delta-T
°C
Wind Press
QNH
hPa
Press
MSL
hPa
Rain
since 9 am
mm
Dir
 
Spd
km/h
Gust
km/h
Spd
kts
Gust
kts
21/11:30pm 12.3 8.6 -3.1 34 6.0 S 7 7 4 4 1019.6 1019.0 0.0
21/11:00pm 14.5 10.6 -1.6 33 6.6 SW 9 11 5 6 1019.7 1019.1 0.0
21/10:30pm 14.9 10.6 -1.6 32 6.8 SW 11 13 6 7 1019.6 1019.0 0.0
21/10:00pm 14.8 10.8 -2.6 30 7.0 SW 9 13 5 7 1019.7 1019.1 0.0
21/09:30pm 15.3 11.3 -2.6 29 7.3 SW 9 11 5 6 1019.7 1019.1 0.0
21/09:00pm 16.1 11.7 -2.4 28 7.6 SSW 11 13 6 7 1019.6 1019.0 0.0
21/08:30pm 16.7 12.4 -1.9 28 7.8 S 11 11 6 6 1019.4 1018.8 0.0
21/08:00pm 17.7 13.4 -1.5 27 8.2 S 11 13 6 7 1019.1 1018.5 0.0
21/07:30pm 18.6 14.3 -1.8 25 8.7 S 11 15 6 8 1018.6 1017.9 0.0
21/07:00pm 19.6 15.3 -1.5 24 9.1 S 11 15 6 8 1018.1 1017.4 0.0
21/06:30pm 21.1 15.7 -1.4 22 9.9 S 17 24 9 13 1017.6 1016.9 0.0
21/06:00pm 22.0 16.0 -1.3 21 10.3 S 20 30 11 16 1017.3 1016.6 0.0
21/05:30pm 22.8 16.9 -2.0 19 11.0 S 19 28 10 15 1017.1 1016.4 0.0
21/05:00pm 23.3 17.8 -2.3 18 11.3 S 17 28 9 15 1016.6 1016.0 0.0
21/04:30pm 23.7 17.4 -1.3 19 11.3 S 22 32 12 17 1016.6 1016.0 0.0
21/04:00pm 23.4 17.2 -3.0 17 11.5 S 20 30 11 16 1016.5 1015.9 0.0
21/03:30pm 23.7 19.0 -2.0 18 11.4 S 13 19 7 10 1016.4 1015.8 0.0
21/03:00pm 23.8 18.0 -1.2 19 11.3 S 19 35 10 19 1016.5 1015.9 0.0
21/02:30pm 23.6 17.9 -0.6 20 11.0 SE 19 26 10 14 1016.9 1016.2 0.0
21/02:00pm 23.7 18.1 0.1 21 10.9 S 19 30 10 16 1017.2 1016.5 0.0
21/01:30pm 22.6 16.3 -0.8 21 10.6 S 22 30 12 16 1017.7 1017.0 0.0
21/01:00pm 22.8 16.3 0.6 23 10.3 S 24 30 13 16 1018.2 1017.5 0.0
21/12:30pm 22.0 16.2 -0.1 23 10.1 SE 20 30 11 16 1018.6 1017.9 0.0
21/12:00pm 21.4 16.3 0.6 25 9.5 S 17 26 9 14 1019.2 1018.6 0.0
21/11:30am 21.4 16.0 1.1 26 9.4 S 19 28 10 15 1019.7 1019.1 0.0
21/11:00am 20.6 15.3 2.0 29 8.7 SSE 19 30 10 16 1020.2 1019.6 0.0
21/10:30am 19.0 14.0 1.5 31 8.0 SSE 17 26 9 14 1020.7 1020.0 0.0
21/10:00am 18.0 12.6 1.5 33 7.5 SE 19 26 10 14 1020.6 1019.9 0.0
21/09:30am 16.0 11.1 -0.2 33 7.0 S 15 22 8 12 1020.5 1019.8 0.0
21/09:00am 14.1 9.8 -1.9 33 6.5 S 11 13 6 7 1020.5 1019.8 0.0
21/08:30am 11.9 7.8 -3.4 34 5.9 S 9 13 5 7 1020.2 1019.6 0.0
21/08:00am 9.3 6.0 -4.6 37 5.0 SW 4 9 2 5 1020.0 1019.4 0.0
21/07:30am 7.2 4.5 -5.5 40 4.4 CALM 0 0 0 0 1019.9 1019.3 0.0
21/07:00am 4.4 1.3 -6.5 45 3.5 NE 2 13 1 7 1019.8 1019.2 0.0
21/06:30am 6.6 4.0 -5.1 43 4.1 CALM 0 2 0 1 1019.3 1018.7 0.0
21/06:00am 4.8 1.9 -8.3 38 4.1 CALM 0 6 0 3 1019.3 1018.7 0.0
21/05:30am 7.8 3.5 -4.9 40 4.5 SW 9 9 5 5 1019.1 1018.5 0.0
21/05:00am 7.7 3.8 -4.7 41 4.4 SSW 7 9 4 5 1019.0 1018.4 0.0
21/04:30am 7.6 3.7 -5.1 40 4.5 SSW 7 9 4 5 1019.2 1018.6 0.0
21/04:00am 8.0 3.7 -4.8 40 4.5 SSW 9 9 5 5 1019.1 1018.5 0.0
21/03:30am 7.1 2.9 -7.7 34 4.9 SSW 7 11 4 6 1019.2 1018.6 0.0
21/03:00am 9.7 5.4 -5.0 35 5.3 S 9 11 5 6 1019.3 1018.7 0.0
21/02:30am 9.0 5.1 -6.8 32 5.4 SSE 6 9 3 5 1019.5 1018.9 0.0
21/02:00am 10.7 6.1 -4.5 34 5.6 S 11 13 6 7 1019.6 1019.0 0.0
21/01:30am 10.0 6.1 -4.4 36 5.3 S 7 9 4 5 1019.7 1019.1 0.0
21/01:00am 9.0 5.1 -6.4 33 5.3 S 6 9 3 5 1019.7 1019.1 0.0
21/12:30am 11.2 7.3 -4.9 32 6.0 S 7 9 4 5 1019.7 1019.1 0.0
21/12:00am 12.0 7.7 -4.6 31 6.2 S 9 11 5 6 1019.9 1019.3 0.0
 
Date/Time
EST
Temp
°C
App
Temp
°C
Dew
Point
Rel
Hum
%
Delta-T
°C
Wind Press
QNH
hPa
Press
MSL
hPa
Rain
since 9 am
mm
Dir
 
Spd
km/h
Gust
km/h
Spd
kts
Gust
kts
20/11:30pm 13.0 8.3 -4.6 29 6.7 S 11 13 6 7 1019.9 1019.3 0.0
20/11:00pm 13.3 8.7 -4.3 29 6.7 SSW 11 15 6 8 1019.9 1019.3 0.0
20/10:30pm 13.7 9.0 -4.9 27 7.1 SSW 11 13 6 7 1020.0 1019.4 0.0
20/10:00pm 14.5 9.5 -4.7 26 7.4 S 13 15 7 8 1020.2 1019.6 0.0
20/09:30pm 14.4 9.3 -5.3 25 7.5 SSW 13 15 7 8 1020.2 1019.6 0.0
20/09:00pm 15.4 10.3 -5.6 23 8.0 S 13 15 7 8 1019.9 1019.3 0.0
20/08:30pm 15.9 10.8 -5.2 23 8.2 S 13 15 7 8 1019.5 1018.9 0.0
20/08:00pm 16.7 11.6 -5.1 22 8.5 S 13 17 7 9 1019.0 1018.4 0.0
20/07:30pm 17.0 12.3 -5.5 21 8.8 S 11 13 6 7 1018.4 1017.7 0.0
20/07:00pm 18.4 13.3 -4.9 20 9.3 S 13 17 7 9 1018.1 1017.4 0.0
20/06:30pm 19.4 14.4 -4.1 20 9.7 S 13 19 7 10 1018.0 1017.3 0.0
20/06:00pm 20.5 15.4 -5.4 17 10.5 SSE 13 19 7 10 1017.7 1017.0 0.0
20/05:30pm 21.3 16.2 -5.5 16 10.9 S 13 20 7 11 1017.3 1016.6 0.0
20/05:00pm 21.5 15.7 -4.5 17 10.8 S 17 28 9 15 1017.1 1016.4 0.0
20/04:30pm 21.8 15.7 -4.3 17 10.9 S 19 26 10 14 1017.0 1016.3 0.0
20/04:00pm 21.9 17.5 -5.9 15 11.3 SW 9 15 5 8 1016.8 1016.1 0.0
20/03:30pm 22.0 17.7 -4.9 16 11.1 SW 9 13 5 7 1016.9 1016.2 0.0
20/03:00pm 21.6 17.3 -4.5 17 10.8 SSE 9 22 5 12 1017.2 1016.5 0.0
20/02:30pm 21.7 16.7 -4.4 17 10.9 SSE 13 24 7 13 1017.6 1016.9 0.0
20/02:00pm 22.0 17.1 -3.4 18 10.8 ESE 13 20 7 11 1018.1 1017.4 0.0
20/01:30pm 20.9 16.4 -3.6 19 10.3 SSE 11 20 6 11 1018.6 1017.9 0.0
20/01:00pm 21.5 17.0 -3.1 19 10.5 WSW 11 22 6 12 1019.2 1018.6 0.0
20/12:30pm 20.3 15.9 -2.7 21 9.8 SW 11 24 6 13 1019.9 1019.3 0.0
20/12:00pm 19.6 15.2 -2.7 22 9.4 SE 11 17 6 9 1020.5 1019.8 0.0
20/11:30am 19.1 14.1 -1.4 25 8.9 ESE 15 24 8 13 1020.8 1020.1 0.0

Other Formats:

Comma delimited format used in spreadsheet applications
http://www.bom.gov.au/fwo/IDQ60801/IDQ60801.94336.axf

JavaScript Object Notation format (JSON) in row-major order
http://www.bom.gov.au/fwo/IDQ60801/IDQ60801.94336.json